sensor_id;sensor_type;location;lat;lon;timestamp;temperature;humidity
2945;DHT22;1482;51.398;7.128;2023-07-24T00:00:19;18.80;99.90
2945;DHT22;1482;51.398;7.128;2023-07-24T00:02:44;18.80;99.90
2945;DHT22;1482;51.398;7.128;2023-07-24T00:05:10;18.90;95.20
2945;DHT22;1482;51.398;7.128;2023-07-24T00:07:36;18.80;99.90
2945;DHT22;1482;51.398;7.128;2023-07-24T00:10:02;18.90;74.40
2945;DHT22;1482;51.398;7.128;2023-07-24T00:12:28;18.90;19.20
2945;DHT22;1482;51.398;7.128;2023-07-24T00:14:53;18.90;99.90
2945;DHT22;1482;51.398;7.128;2023-07-24T00:17:19;18.80;99.90
2945;DHT22;1482;51.398;7.128;2023-07-24T00:19:44;18.90;11.40
2945;DHT22;1482;51.398;7.128;2023-07-24T00:22:10;18.80;4.90
2945;DHT22;1482;51.398;7.128;2023-07-24T00:24:35;18.80;99.90
2945;DHT22;1482;51.398;7.128;2023-07-24T00:27:01;18.80;99.90
2945;DHT22;1482;51.398;7.128;2023-07-24T00:29:27;18.90;99.90
2945;DHT22;1482;51.398;7.128;2023-07-24T00:31:53;18.80;99.90
2945;DHT22;1482;51.398;7.128;2023-07-24T00:34:19;18.80;99.90
2945;DHT22;1482;51.398;7.128;2023-07-24T00:36:44;18.90;99.90
2945;DHT22;1482;51.398;7.128;2023-07-24T00:39:10;18.90;99.90
2945;DHT22;1482;51.398;7.128;2023-07-24T00:41:35;18.80;99.90
2945;DHT22;1482;51.398;7.128;2023-07-24T00:44:01;18.80;99.90
2945;DHT22;1482;51.398;7.128;2023-07-24T00:46:27;18.80;99.90
2945;DHT22;1482;51.398;7.128;2023-07-24T00:48:58;18.80;99.90
2945;DHT22;1482;51.398;7.128;2023-07-24T00:51:25;18.80;99.90
2945;DHT22;1482;51.398;7.128;2023-07-24T00:53:51;18.80;99.90
2945;DHT22;1482;51.398;7.128;2023-07-24T00:56:17;18.80;99.90
2945;DHT22;1482;51.398;7.128;2023-07-24T00:58:42;18.70;99.90
2945;DHT22;1482;51.398;7.128;2023-07-24T01:01:09;18.70;99.90
2945;DHT22;1482;51.398;7.128;2023-07-24T01:03:36;18.70;99.90
2945;DHT22;1482;51.398;7.128;2023-07-24T01:06:03;18.70;1.00
2945;DHT22;1482;51.398;7.128;2023-07-24T01:08:29;18.70;1.00
2945;DHT22;1482;51.398;7.128;2023-07-24T01:10:57;18.70;1.00
2945;DHT22;1482;51.398;7.128;2023-07-24T01:13:25;18.60;1.00
2945;DHT22;1482;51.398;7.128;2023-07-24T01:18:24;18.60;1.00
2945;DHT22;1482;51.398;7.128;2023-07-24T01:20:55;18.60;99.90
2945;DHT22;1482;51.398;7.128;2023-07-24T01:23:55;18.70;99.90
2945;DHT22;1482;51.398;7.128;2023-07-24T01:26:23;18.70;99.90
2945;DHT22;1482;51.398;7.128;2023-07-24T01:28:49;18.70;99.90
2945;DHT22;1482;51.398;7.128;2023-07-24T01:31:15;18.60;99.90
2945;DHT22;1482;51.398;7.128;2023-07-24T01:33:42;18.60;99.90
2945;DHT22;1482;51.398;7.128;2023-07-24T01:36:07;18.60;99.90
2945;DHT22;1482;51.398;7.128;2023-07-24T01:38:34;18.50;99.90
2945;DHT22;1482;51.398;7.128;2023-07-24T01:41:00;18.50;99.90
2945;DHT22;1482;51.398;7.128;2023-07-24T01:43:28;18.60;99.90
2945;DHT22;1482;51.398;7.128;2023-07-24T01:45:54;18.60;99.90
2945;DHT22;1482;51.398;7.128;2023-07-24T01:48:20;18.60;99.90
2945;DHT22;1482;51.398;7.128;2023-07-24T01:50:45;18.60;1.00
2945;DHT22;1482;51.398;7.128;2023-07-24T01:53:11;18.60;99.90
2945;DHT22;1482;51.398;7.128;2023-07-24T01:55:36;18.60;99.90
2945;DHT22;1482;51.398;7.128;2023-07-24T01:58:02;18.60;93.10
2945;DHT22;1482;51.398;7.128;2023-07-24T02:00:28;18.60;4.90
2945;DHT22;1482;51.398;7.128;2023-07-24T02:02:54;18.60;1.00
2945;DHT22;1482;51.398;7.128;2023-07-24T02:05:19;18.50;1.00
2945;DHT22;1482;51.398;7.128;2023-07-24T02:07:45;18.40;75.60
2945;DHT22;1482;51.398;7.128;2023-07-24T02:10:10;18.40;99.90
2945;DHT22;1482;51.398;7.128;2023-07-24T02:12:36;18.40;99.90
2945;DHT22;1482;51.398;7.128;2023-07-24T02:15:01;18.40;99.90
2945;DHT22;1482;51.398;7.128;2023-07-24T02:17:27;18.40;99.90
2945;DHT22;1482;51.398;7.128;2023-07-24T02:19:53;18.40;99.90
2945;DHT22;1482;51.398;7.128;2023-07-24T02:22:18;18.40;99.90
2945;DHT22;1482;51.398;7.128;2023-07-24T02:24:44;18.40;99.90
2945;DHT22;1482;51.398;7.128;2023-07-24T02:27:12;18.40;99.90
2945;DHT22;1482;51.398;7.128;2023-07-24T02:29:39;18.30;99.90
2945;DHT22;1482;51.398;7.128;2023-07-24T02:32:05;18.40;99.90
2945;DHT22;1482;51.398;7.128;2023-07-24T02:34:31;18.40;99.90
2945;DHT22;1482;51.398;7.128;2023-07-24T02:36:56;18.40;99.90
2945;DHT22;1482;51.398;7.128;2023-07-24T02:39:22;18.40;99.90
2945;DHT22;1482;51.398;7.128;2023-07-24T02:41:48;18.40;99.90
2945;DHT22;1482;51.398;7.128;2023-07-24T02:44:14;18.50;99.90
2945;DHT22;1482;51.398;7.128;2023-07-24T02:46:39;18.50;93.40
2945;DHT22;1482;51.398;7.128;2023-07-24T02:49:05;18.50;99.90
2945;DHT22;1482;51.398;7.128;2023-07-24T02:51:31;18.50;99.90
2945;DHT22;1482;51.398;7.128;2023-07-24T02:53:56;18.50;99.90
2945;DHT22;1482;51.398;7.128;2023-07-24T02:56:22;18.50;16.20
2945;DHT22;1482;51.398;7.128;2023-07-24T02:58:48;18.50;1.00
2945;DHT22;1482;51.398;7.128;2023-07-24T03:01:13;18.60;1.00
2945;DHT22;1482;51.398;7.128;2023-07-24T03:03:40;18.60;1.00
2945;DHT22;1482;51.398;7.128;2023-07-24T03:06:05;18.60;1.00
2945;DHT22;1482;51.398;7.128;2023-07-24T03:08:31;18.70;1.00
2945;DHT22;1482;51.398;7.128;2023-07-24T03:10:57;18.70;99.90
2945;DHT22;1482;51.398;7.128;2023-07-24T03:13:23;18.70;1.00
2945;DHT22;1482;51.398;7.128;2023-07-24T03:15:52;18.70;1.00
2945;DHT22;1482;51.398;7.128;2023-07-24T03:18:18;18.80;2.00
2945;DHT22;1482;51.398;7.128;2023-07-24T03:20:43;18.80;1.00
2945;DHT22;1482;51.398;7.128;2023-07-24T03:23:09;18.70;1.00
2945;DHT22;1482;51.398;7.128;2023-07-24T03:25:34;18.70;99.90
2945;DHT22;1482;51.398;7.128;2023-07-24T03:28:01;18.60;1.00
2945;DHT22;1482;51.398;7.128;2023-07-24T03:30:27;18.60;1.00
2945;DHT22;1482;51.398;7.128;2023-07-24T03:32:52;18.60;1.00
2945;DHT22;1482;51.398;7.128;2023-07-24T03:35:18;18.60;99.90
2945;DHT22;1482;51.398;7.128;2023-07-24T03:37:43;18.60;1.00
2945;DHT22;1482;51.398;7.128;2023-07-24T03:40:09;18.60;1.00
2945;DHT22;1482;51.398;7.128;2023-07-24T03:42:35;18.60;24.30
2945;DHT22;1482;51.398;7.128;2023-07-24T03:45:00;18.60;22.20
2945;DHT22;1482;51.398;7.128;2023-07-24T03:47:26;18.50;99.90
2945;DHT22;1482;51.398;7.128;2023-07-24T03:49:51;18.50;99.90
2945;DHT22;1482;51.398;7.128;2023-07-24T03:52:17;18.50;99.90
2945;DHT22;1482;51.398;7.128;2023-07-24T03:54:42;18.50;99.90
2945;DHT22;1482;51.398;7.128;2023-07-24T03:57:08;18.50;99.90
2945;DHT22;1482;51.398;7.128;2023-07-24T03:59:34;18.60;99.90
2945;DHT22;1482;51.398;7.128;2023-07-24T04:01:59;18.60;99.90
2945;DHT22;1482;51.398;7.128;2023-07-24T04:04:25;18.60;93.20
2945;DHT22;1482;51.398;7.128;2023-07-24T04:06:51;18.60;1.00
2945;DHT22;1482;51.398;7.128;2023-07-24T04:09:16;18.60;1.00
2945;DHT22;1482;51.398;7.128;2023-07-24T04:11:43;18.60;1.00
2945;DHT22;1482;51.398;7.128;2023-07-24T04:14:09;18.60;99.90
2945;DHT22;1482;51.398;7.128;2023-07-24T04:16:35;18.60;1.00
2945;DHT22;1482;51.398;7.128;2023-07-24T04:19:00;18.60;99.90
2945;DHT22;1482;51.398;7.128;2023-07-24T04:21:26;18.60;1.00
2945;DHT22;1482;51.398;7.128;2023-07-24T04:23:51;18.60;99.90
2945;DHT22;1482;51.398;7.128;2023-07-24T04:26:17;18.60;99.90
2945;DHT22;1482;51.398;7.128;2023-07-24T04:28:42;18.70;99.90
2945;DHT22;1482;51.398;7.128;2023-07-24T04:31:08;18.60;99.90
2945;DHT22;1482;51.398;7.128;2023-07-24T04:33:33;18.60;1.00
2945;DHT22;1482;51.398;7.128;2023-07-24T04:35:59;18.60;99.90
2945;DHT22;1482;51.398;7.128;2023-07-24T04:38:25;18.70;1.00
2945;DHT22;1482;51.398;7.128;2023-07-24T04:40:50;18.60;99.90
2945;DHT22;1482;51.398;7.128;2023-07-24T04:43:16;18.60;1.00
2945;DHT22;1482;51.398;7.128;2023-07-24T04:45:41;18.60;99.90
2945;DHT22;1482;51.398;7.128;2023-07-24T04:48:07;18.60;1.00
2945;DHT22;1482;51.398;7.128;2023-07-24T04:50:32;18.60;99.90
2945;DHT22;1482;51.398;7.128;2023-07-24T04:52:58;18.60;1.00
2945;DHT22;1482;51.398;7.128;2023-07-24T04:55:24;18.60;99.90
2945;DHT22;1482;51.398;7.128;2023-07-24T04:57:49;18.60;99.90
2945;DHT22;1482;51.398;7.128;2023-07-24T05:00:15;18.60;99.90
2945;DHT22;1482;51.398;7.128;2023-07-24T05:02:41;18.60;1.00
2945;DHT22;1482;51.398;7.128;2023-07-24T05:05:07;18.50;1.00
2945;DHT22;1482;51.398;7.128;2023-07-24T05:07:32;18.50;1.00
2945;DHT22;1482;51.398;7.128;2023-07-24T05:09:58;18.50;1.00
2945;DHT22;1482;51.398;7.128;2023-07-24T05:12:24;18.50;99.90
2945;DHT22;1482;51.398;7.128;2023-07-24T05:14:50;18.50;99.90
2945;DHT22;1482;51.398;7.128;2023-07-24T05:17:15;18.60;99.90
2945;DHT22;1482;51.398;7.128;2023-07-24T05:19:41;18.50;99.90
2945;DHT22;1482;51.398;7.128;2023-07-24T05:22:06;18.60;99.90
2945;DHT22;1482;51.398;7.128;2023-07-24T05:24:33;18.60;99.90
2945;DHT22;1482;51.398;7.128;2023-07-24T05:26:59;18.70;99.90
2945;DHT22;1482;51.398;7.128;2023-07-24T05:29:24;18.80;99.90
2945;DHT22;1482;51.398;7.128;2023-07-24T05:31:50;18.90;93.80
2945;DHT22;1482;51.398;7.128;2023-07-24T05:34:15;19.00;1.00
2945;DHT22;1482;51.398;7.128;2023-07-24T05:36:41;19.00;1.00
2945;DHT22;1482;51.398;7.128;2023-07-24T05:39:07;19.10;1.00
2945;DHT22;1482;51.398;7.128;2023-07-24T05:41:32;19.10;1.00
2945;DHT22;1482;51.398;7.128;2023-07-24T05:43:58;19.10;99.90
2945;DHT22;1482;51.398;7.128;2023-07-24T05:46:23;19.20;99.90
2945;DHT22;1482;51.398;7.128;2023-07-24T05:48:49;19.20;99.90
2945;DHT22;1482;51.398;7.128;2023-07-24T05:51:14;19.20;99.90
2945;DHT22;1482;51.398;7.128;2023-07-24T05:53:40;19.10;1.00
2945;DHT22;1482;51.398;7.128;2023-07-24T05:56:05;19.10;99.90
2945;DHT22;1482;51.398;7.128;2023-07-24T05:58:31;19.10;1.00
2945;DHT22;1482;51.398;7.128;2023-07-24T06:00:57;19.10;99.90
2945;DHT22;1482;51.398;7.128;2023-07-24T06:03:23;19.30;1.00
2945;DHT22;1482;51.398;7.128;2023-07-24T06:05:55;19.40;99.90
2945;DHT22;1482;51.398;7.128;2023-07-24T06:08:22;19.40;99.90
2945;DHT22;1482;51.398;7.128;2023-07-24T06:10:48;19.40;99.90
2945;DHT22;1482;51.398;7.128;2023-07-24T06:13:17;19.30;99.90
2945;DHT22;1482;51.398;7.128;2023-07-24T06:15:43;19.30;99.90
2945;DHT22;1482;51.398;7.128;2023-07-24T06:18:09;19.30;99.90
2945;DHT22;1482;51.398;7.128;2023-07-24T06:20:35;19.40;1.00
2945;DHT22;1482;51.398;7.128;2023-07-24T06:23:00;19.60;99.90
2945;DHT22;1482;51.398;7.128;2023-07-24T06:25:26;19.70;1.00
2945;DHT22;1482;51.398;7.128;2023-07-24T06:27:51;19.70;1.00
2945;DHT22;1482;51.398;7.128;2023-07-24T06:30:17;19.70;99.90
2945;DHT22;1482;51.398;7.128;2023-07-24T06:32:42;19.70;99.90
2945;DHT22;1482;51.398;7.128;2023-07-24T06:35:08;19.70;99.90
2945;DHT22;1482;51.398;7.128;2023-07-24T06:37:34;19.60;99.90
2945;DHT22;1482;51.398;7.128;2023-07-24T06:40:00;19.60;99.90
2945;DHT22;1482;51.398;7.128;2023-07-24T06:42:26;19.80;1.00
2945;DHT22;1482;51.398;7.128;2023-07-24T06:44:51;19.90;99.90
2945;DHT22;1482;51.398;7.128;2023-07-24T06:47:17;20.00;99.90
2945;DHT22;1482;51.398;7.128;2023-07-24T06:49:42;20.10;99.90
2945;DHT22;1482;51.398;7.128;2023-07-24T06:52:08;20.30;64.10
2945;DHT22;1482;51.398;7.128;2023-07-24T06:54:33;20.20;1.00
2945;DHT22;1482;51.398;7.128;2023-07-24T06:56:59;20.30;1.00
2945;DHT22;1482;51.398;7.128;2023-07-24T06:59:24;20.30;1.00
2945;DHT22;1482;51.398;7.128;2023-07-24T07:01:50;20.30;1.00
2945;DHT22;1482;51.398;7.128;2023-07-24T07:04:16;20.30;1.00
2945;DHT22;1482;51.398;7.128;2023-07-24T07:06:42;20.70;1.00
2945;DHT22;1482;51.398;7.128;2023-07-24T07:09:07;21.00;1.00
2945;DHT22;1482;51.398;7.128;2023-07-24T07:11:33;21.40;99.90
2945;DHT22;1482;51.398;7.128;2023-07-24T07:13:58;21.50;99.90
2945;DHT22;1482;51.398;7.128;2023-07-24T07:16:24;21.70;99.90
2945;DHT22;1482;51.398;7.128;2023-07-24T07:18:49;21.90;99.90
2945;DHT22;1482;51.398;7.128;2023-07-24T07:21:15;22.00;99.90
2945;DHT22;1482;51.398;7.128;2023-07-24T07:23:40;21.80;99.90
2945;DHT22;1482;51.398;7.128;2023-07-24T07:26:06;21.60;99.90
2945;DHT22;1482;51.398;7.128;2023-07-24T07:28:31;21.40;99.90
2945;DHT22;1482;51.398;7.128;2023-07-24T07:30:58;21.10;99.90
2945;DHT22;1482;51.398;7.128;2023-07-24T07:33:23;21.00;99.90
2945;DHT22;1482;51.398;7.128;2023-07-24T07:35:50;21.00;99.90
2945;DHT22;1482;51.398;7.128;2023-07-24T07:38:15;21.00;99.90
2945;DHT22;1482;51.398;7.128;2023-07-24T07:40:41;21.00;99.90
2945;DHT22;1482;51.398;7.128;2023-07-24T07:43:07;20.80;99.90
2945;DHT22;1482;51.398;7.128;2023-07-24T07:45:32;20.70;99.90
2945;DHT22;1482;51.398;7.128;2023-07-24T07:47:58;20.70;99.90
2945;DHT22;1482;51.398;7.128;2023-07-24T07:50:24;20.50;99.90
2945;DHT22;1482;51.398;7.128;2023-07-24T07:52:50;20.50;99.90
2945;DHT22;1482;51.398;7.128;2023-07-24T07:55:20;20.50;99.90
2945;DHT22;1482;51.398;7.128;2023-07-24T07:57:46;20.60;99.90
2945;DHT22;1482;51.398;7.128;2023-07-24T08:00:12;20.60;99.90
2945;DHT22;1482;51.398;7.128;2023-07-24T08:02:37;20.70;99.90
2945;DHT22;1482;51.398;7.128;2023-07-24T08:05:10;20.80;99.90
2945;DHT22;1482;51.398;7.128;2023-07-24T08:07:36;20.90;99.90
2945;DHT22;1482;51.398;7.128;2023-07-24T08:10:03;21.00;99.90
2945;DHT22;1482;51.398;7.128;2023-07-24T08:12:28;21.00;99.90
2945;DHT22;1482;51.398;7.128;2023-07-24T08:14:55;21.00;99.90
2945;DHT22;1482;51.398;7.128;2023-07-24T08:17:20;21.20;99.90
2945;DHT22;1482;51.398;7.128;2023-07-24T08:19:46;21.40;99.90
2945;DHT22;1482;51.398;7.128;2023-07-24T08:22:11;21.80;99.90
2945;DHT22;1482;51.398;7.128;2023-07-24T08:24:37;22.00;99.90
2945;DHT22;1482;51.398;7.128;2023-07-24T08:27:03;23.10;99.90
2945;DHT22;1482;51.398;7.128;2023-07-24T08:29:28;23.80;35.40
2945;DHT22;1482;51.398;7.128;2023-07-24T08:31:54;24.10;12.40
2945;DHT22;1482;51.398;7.128;2023-07-24T08:34:20;24.00;1.00
2945;DHT22;1482;51.398;7.128;2023-07-24T08:36:45;23.80;1.00
2945;DHT22;1482;51.398;7.128;2023-07-24T08:39:11;23.60;1.00
2945;DHT22;1482;51.398;7.128;2023-07-24T08:41:37;23.30;5.50
2945;DHT22;1482;51.398;7.128;2023-07-24T08:44:07;23.20;11.90
2945;DHT22;1482;51.398;7.128;2023-07-24T08:46:38;23.10;25.80
2945;DHT22;1482;51.398;7.128;2023-07-24T08:49:06;23.10;31.30
2945;DHT22;1482;51.398;7.128;2023-07-24T08:51:36;23.10;38.90
2945;DHT22;1482;51.398;7.128;2023-07-24T08:54:02;23.10;22.00
2945;DHT22;1482;51.398;7.128;2023-07-24T08:56:29;22.90;21.20
2945;DHT22;1482;51.398;7.128;2023-07-24T08:58:55;22.70;27.60
2945;DHT22;1482;51.398;7.128;2023-07-24T09:01:21;22.60;37.50
2945;DHT22;1482;51.398;7.128;2023-07-24T09:03:46;22.60;55.60
2945;DHT22;1482;51.398;7.128;2023-07-24T09:06:12;22.50;50.30
2945;DHT22;1482;51.398;7.128;2023-07-24T09:08:39;22.60;57.90
2945;DHT22;1482;51.398;7.128;2023-07-24T09:11:06;22.70;48.80
2945;DHT22;1482;51.398;7.128;2023-07-24T09:13:32;22.60;41.50
2945;DHT22;1482;51.398;7.128;2023-07-24T09:15:58;22.60;38.10
2945;DHT22;1482;51.398;7.128;2023-07-24T09:18:27;22.40;39.60
2945;DHT22;1482;51.398;7.128;2023-07-24T09:21:03;22.20;49.00
2945;DHT22;1482;51.398;7.128;2023-07-24T09:23:29;22.20;59.80
2945;DHT22;1482;51.398;7.128;2023-07-24T09:25:54;22.10;66.60
2945;DHT22;1482;51.398;7.128;2023-07-24T09:28:20;21.90;83.10
2945;DHT22;1482;51.398;7.128;2023-07-24T09:30:57;22.00;99.50
2945;DHT22;1482;51.398;7.128;2023-07-24T09:33:33;22.00;85.00
2945;DHT22;1482;51.398;7.128;2023-07-24T09:36:00;21.90;84.20
2945;DHT22;1482;51.398;7.128;2023-07-24T09:38:25;21.90;95.20
2945;DHT22;1482;51.398;7.128;2023-07-24T09:40:53;22.00;90.30
2945;DHT22;1482;51.398;7.128;2023-07-24T09:43:24;21.90;79.20
2945;DHT22;1482;51.398;7.128;2023-07-24T09:45:51;21.70;88.80
2945;DHT22;1482;51.398;7.128;2023-07-24T09:48:18;21.70;96.40
2945;DHT22;1482;51.398;7.128;2023-07-24T09:50:48;21.50;99.80
2945;DHT22;1482;51.398;7.128;2023-07-24T09:58:16;21.20;99.90
2945;DHT22;1482;51.398;7.128;2023-07-24T10:00:43;21.20;99.90
2945;DHT22;1482;51.398;7.128;2023-07-24T10:03:10;21.30;99.90
2945;DHT22;1482;51.398;7.128;2023-07-24T10:05:36;21.40;99.90
2945;DHT22;1482;51.398;7.128;2023-07-24T10:08:01;21.40;99.90
2945;DHT22;1482;51.398;7.128;2023-07-24T10:10:27;21.50;99.90
2945;DHT22;1482;51.398;7.128;2023-07-24T10:12:55;21.50;99.90
2945;DHT22;1482;51.398;7.128;2023-07-24T10:15:21;21.50;99.90
2945;DHT22;1482;51.398;7.128;2023-07-24T10:17:46;21.70;99.90
2945;DHT22;1482;51.398;7.128;2023-07-24T10:20:12;21.70;99.90
2945;DHT22;1482;51.398;7.128;2023-07-24T10:22:41;21.80;99.90
2945;DHT22;1482;51.398;7.128;2023-07-24T10:25:08;22.10;99.90
2945;DHT22;1482;51.398;7.128;2023-07-24T10:27:42;22.40;99.90
2945;DHT22;1482;51.398;7.128;2023-07-24T10:30:09;22.60;99.90
2945;DHT22;1482;51.398;7.128;2023-07-24T10:32:48;22.90;99.90
2945;DHT22;1482;51.398;7.128;2023-07-24T10:35:15;23.30;94.70
2945;DHT22;1482;51.398;7.128;2023-07-24T10:37:43;23.50;46.10
2945;DHT22;1482;51.398;7.128;2023-07-24T10:40:19;23.70;37.20
2945;DHT22;1482;51.398;7.128;2023-07-24T10:42:45;23.80;27.40
2945;DHT22;1482;51.398;7.128;2023-07-24T10:45:11;24.00;29.60
2945;DHT22;1482;51.398;7.128;2023-07-24T10:47:37;24.00;17.00
2945;DHT22;1482;51.398;7.128;2023-07-24T10:50:03;23.90;9.80
2945;DHT22;1482;51.398;7.128;2023-07-24T10:52:31;24.20;9.80
2945;DHT22;1482;51.398;7.128;2023-07-24T10:55:01;24.40;1.00
2945;DHT22;1482;51.398;7.128;2023-07-24T10:57:28;24.50;1.00
2945;DHT22;1482;51.398;7.128;2023-07-24T10:59:54;24.50;1.00
2945;DHT22;1482;51.398;7.128;2023-07-24T11:02:20;24.50;1.00
2945;DHT22;1482;51.398;7.128;2023-07-24T11:04:46;24.50;1.00
2945;DHT22;1482;51.398;7.128;2023-07-24T11:07:12;24.30;1.00
2945;DHT22;1482;51.398;7.128;2023-07-24T11:09:39;24.10;1.00
2945;DHT22;1482;51.398;7.128;2023-07-24T11:12:18;23.80;1.00
2945;DHT22;1482;51.398;7.128;2023-07-24T11:14:51;23.50;5.90
2945;DHT22;1482;51.398;7.128;2023-07-24T11:17:17;23.30;25.50
2945;DHT22;1482;51.398;7.128;2023-07-24T11:19:42;23.40;22.00
2945;DHT22;1482;51.398;7.128;2023-07-24T11:22:08;23.40;26.00
2945;DHT22;1482;51.398;7.128;2023-07-24T11:24:42;23.30;27.80
2945;DHT22;1482;51.398;7.128;2023-07-24T11:27:13;23.20;30.30
2945;DHT22;1482;51.398;7.128;2023-07-24T11:29:39;23.10;32.40
2945;DHT22;1482;51.398;7.128;2023-07-24T11:32:04;23.00;44.80
2945;DHT22;1482;51.398;7.128;2023-07-24T11:34:30;22.90;45.20
2945;DHT22;1482;51.398;7.128;2023-07-24T11:36:56;22.90;65.10
2945;DHT22;1482;51.398;7.128;2023-07-24T11:39:23;22.70;80.10
2945;DHT22;1482;51.398;7.128;2023-07-24T11:41:49;22.70;92.30
2945;DHT22;1482;51.398;7.128;2023-07-24T11:44:14;22.60;99.80
2945;DHT22;1482;51.398;7.128;2023-07-24T11:46:42;22.50;99.90
2945;DHT22;1482;51.398;7.128;2023-07-24T11:49:08;22.50;99.90
2945;DHT22;1482;51.398;7.128;2023-07-24T11:51:37;22.40;99.90
2945;DHT22;1482;51.398;7.128;2023-07-24T11:54:06;22.30;99.90
2945;DHT22;1482;51.398;7.128;2023-07-24T11:56:32;22.30;99.90
2945;DHT22;1482;51.398;7.128;2023-07-24T11:58:58;22.20;99.90
2945;DHT22;1482;51.398;7.128;2023-07-24T12:01:33;21.90;99.90
2945;DHT22;1482;51.398;7.128;2023-07-24T12:03:59;20.80;72.70
2945;DHT22;1482;51.398;7.128;2023-07-24T12:06:24;20.20;95.40
2945;DHT22;1482;51.398;7.128;2023-07-24T12:08:51;19.80;99.90
2945;DHT22;1482;51.398;7.128;2023-07-24T12:11:26;19.30;99.90
2945;DHT22;1482;51.398;7.128;2023-07-24T12:13:51;18.80;99.90
2945;DHT22;1482;51.398;7.128;2023-07-24T12:16:19;18.60;99.90
2945;DHT22;1482;51.398;7.128;2023-07-24T12:18:44;18.30;99.90
2945;DHT22;1482;51.398;7.128;2023-07-24T12:21:10;18.00;99.90
2945;DHT22;1482;51.398;7.128;2023-07-24T12:23:35;17.70;99.90
2945;DHT22;1482;51.398;7.128;2023-07-24T12:26:01;17.60;99.90
2945;DHT22;1482;51.398;7.128;2023-07-24T12:28:26;17.50;99.90
2945;DHT22;1482;51.398;7.128;2023-07-24T12:30:52;17.30;99.90
2945;DHT22;1482;51.398;7.128;2023-07-24T12:33:17;17.30;99.90
2945;DHT22;1482;51.398;7.128;2023-07-24T12:35:43;17.20;99.90
2945;DHT22;1482;51.398;7.128;2023-07-24T12:38:08;17.10;1.00
2945;DHT22;1482;51.398;7.128;2023-07-24T12:40:34;17.20;1.00
2945;DHT22;1482;51.398;7.128;2023-07-24T12:42:59;17.20;1.00
2945;DHT22;1482;51.398;7.128;2023-07-24T12:45:25;17.30;1.00
2945;DHT22;1482;51.398;7.128;2023-07-24T12:47:50;17.40;1.00
2945;DHT22;1482;51.398;7.128;2023-07-24T12:50:16;17.50;1.00
2945;DHT22;1482;51.398;7.128;2023-07-24T12:52:42;17.70;1.00
2945;DHT22;1482;51.398;7.128;2023-07-24T12:55:08;18.00;1.00
2945;DHT22;1482;51.398;7.128;2023-07-24T12:57:33;18.30;1.00
2945;DHT22;1482;51.398;7.128;2023-07-24T12:59:59;18.80;24.30
2945;DHT22;1482;51.398;7.128;2023-07-24T13:02:24;19.10;1.00
2945;DHT22;1482;51.398;7.128;2023-07-24T13:04:50;19.50;1.00
2945;DHT22;1482;51.398;7.128;2023-07-24T13:07:16;19.70;1.00
2945;DHT22;1482;51.398;7.128;2023-07-24T13:09:41;20.00;1.00
2945;DHT22;1482;51.398;7.128;2023-07-24T13:12:08;20.10;99.90
2945;DHT22;1482;51.398;7.128;2023-07-24T13:14:33;20.40;1.00
2945;DHT22;1482;51.398;7.128;2023-07-24T13:16:59;20.70;1.00
2945;DHT22;1482;51.398;7.128;2023-07-24T13:19:24;20.90;1.00
2945;DHT22;1482;51.398;7.128;2023-07-24T13:21:50;21.10;99.90
2945;DHT22;1482;51.398;7.128;2023-07-24T13:24:16;21.30;99.90
2945;DHT22;1482;51.398;7.128;2023-07-24T13:26:41;21.40;99.90
2945;DHT22;1482;51.398;7.128;2023-07-24T13:29:08;21.70;99.90
2945;DHT22;1482;51.398;7.128;2023-07-24T13:31:33;21.80;99.90
2945;DHT22;1482;51.398;7.128;2023-07-24T13:33:59;22.00;99.90
2945;DHT22;1482;51.398;7.128;2023-07-24T13:36:25;22.00;99.90
2945;DHT22;1482;51.398;7.128;2023-07-24T13:38:50;22.20;99.90
2945;DHT22;1482;51.398;7.128;2023-07-24T13:41:17;22.20;99.90
2945;DHT22;1482;51.398;7.128;2023-07-24T13:43:42;22.20;99.90
2945;DHT22;1482;51.398;7.128;2023-07-24T13:46:08;22.20;99.90
2945;DHT22;1482;51.398;7.128;2023-07-24T13:48:34;22.40;99.90
2945;DHT22;1482;51.398;7.128;2023-07-24T13:51:00;22.60;99.90
2945;DHT22;1482;51.398;7.128;2023-07-24T13:53:25;22.90;99.90
2945;DHT22;1482;51.398;7.128;2023-07-24T13:55:51;23.20;98.00
2945;DHT22;1482;51.398;7.128;2023-07-24T13:58:17;23.40;83.10
2945;DHT22;1482;51.398;7.128;2023-07-24T14:00:42;23.60;45.30
2945;DHT22;1482;51.398;7.128;2023-07-24T14:03:08;23.70;25.30
2945;DHT22;1482;51.398;7.128;2023-07-24T14:05:34;23.60;19.90
2945;DHT22;1482;51.398;7.128;2023-07-24T14:08:02;23.90;40.90
2945;DHT22;1482;51.398;7.128;2023-07-24T14:10:28;24.20;48.00
2945;DHT22;1482;51.398;7.128;2023-07-24T14:12:53;24.40;34.70
2945;DHT22;1482;51.398;7.128;2023-07-24T14:15:19;24.50;22.60
2945;DHT22;1482;51.398;7.128;2023-07-24T14:17:44;24.40;6.70
2945;DHT22;1482;51.398;7.128;2023-07-24T14:20:10;24.40;6.60
2945;DHT22;1482;51.398;7.128;2023-07-24T14:22:36;24.50;19.70
2945;DHT22;1482;51.398;7.128;2023-07-24T14:25:02;24.60;11.40
2945;DHT22;1482;51.398;7.128;2023-07-24T14:27:27;24.60;8.50
2945;DHT22;1482;51.398;7.128;2023-07-24T14:29:53;24.50;4.10
2945;DHT22;1482;51.398;7.128;2023-07-24T14:32:18;24.40;1.00
2945;DHT22;1482;51.398;7.128;2023-07-24T14:34:47;24.40;9.80
2945;DHT22;1482;51.398;7.128;2023-07-24T14:37:13;24.30;38.80
2945;DHT22;1482;51.398;7.128;2023-07-24T14:39:38;24.20;36.20
2945;DHT22;1482;51.398;7.128;2023-07-24T14:42:04;24.10;69.50
2945;DHT22;1482;51.398;7.128;2023-07-24T14:44:30;23.90;55.50
2945;DHT22;1482;51.398;7.128;2023-07-24T14:46:55;23.80;73.30
2945;DHT22;1482;51.398;7.128;2023-07-24T14:49:21;23.60;89.60
2945;DHT22;1482;51.398;7.128;2023-07-24T14:51:46;23.50;96.30
2945;DHT22;1482;51.398;7.128;2023-07-24T14:54:12;23.30;99.90
2945;DHT22;1482;51.398;7.128;2023-07-24T14:56:37;23.20;99.90
2945;DHT22;1482;51.398;7.128;2023-07-24T14:59:03;23.10;99.90
2945;DHT22;1482;51.398;7.128;2023-07-24T15:01:28;23.00;99.90
2945;DHT22;1482;51.398;7.128;2023-07-24T15:03:55;23.00;99.90
2945;DHT22;1482;51.398;7.128;2023-07-24T15:06:21;22.90;99.90
2945;DHT22;1482;51.398;7.128;2023-07-24T15:08:46;22.60;99.90
2945;DHT22;1482;51.398;7.128;2023-07-24T15:11:12;22.50;99.90
2945;DHT22;1482;51.398;7.128;2023-07-24T15:13:38;22.30;99.90
2945;DHT22;1482;51.398;7.128;2023-07-24T15:16:04;22.20;99.90
2945;DHT22;1482;51.398;7.128;2023-07-24T15:18:30;22.30;99.90
2945;DHT22;1482;51.398;7.128;2023-07-24T15:20:55;22.50;99.90
2945;DHT22;1482;51.398;7.128;2023-07-24T15:23:21;22.80;99.90
2945;DHT22;1482;51.398;7.128;2023-07-24T15:25:46;23.10;99.90
2945;DHT22;1482;51.398;7.128;2023-07-24T15:28:12;23.30;99.90
2945;DHT22;1482;51.398;7.128;2023-07-24T15:30:38;23.60;99.90
2945;DHT22;1482;51.398;7.128;2023-07-24T15:33:03;23.80;99.90
2945;DHT22;1482;51.398;7.128;2023-07-24T15:35:29;23.80;99.90
2945;DHT22;1482;51.398;7.128;2023-07-24T15:37:54;23.90;99.90
2945;DHT22;1482;51.398;7.128;2023-07-24T15:40:20;23.90;99.90
2945;DHT22;1482;51.398;7.128;2023-07-24T15:42:45;23.90;76.80
2945;DHT22;1482;51.398;7.128;2023-07-24T15:45:12;23.80;50.20
2945;DHT22;1482;51.398;7.128;2023-07-24T15:47:37;23.70;72.10
2945;DHT22;1482;51.398;7.128;2023-07-24T15:50:03;23.50;59.10
2945;DHT22;1482;51.398;7.128;2023-07-24T15:52:30;23.40;63.20
2945;DHT22;1482;51.398;7.128;2023-07-24T15:54:55;23.50;89.10
2945;DHT22;1482;51.398;7.128;2023-07-24T15:57:21;23.60;91.30
2945;DHT22;1482;51.398;7.128;2023-07-24T15:59:46;23.60;88.70
2945;DHT22;1482;51.398;7.128;2023-07-24T16:02:12;23.80;68.10
2945;DHT22;1482;51.398;7.128;2023-07-24T16:04:37;23.80;53.40